Time,TemperatureF,DewpointF,PressureIn,WindDirection,WindDirectionDegrees,WindSpeedMPH,WindSpeedGustMPH,Humidity,HourlyPrecipIn,Conditions,Clouds,dailyrainin,SolarRadiationWatts/m^2,SoftwareType,DateUTC
2013-02-23 00:11:00,71.2,68.0,30.00,South,173,7.0,10.0,88,0.00,,,0.00,0,weatherlink.com 1.10,2013-02-23 05:11:00,
2013-02-23 00:26:00,71.3,68.0,30.00,South,169,1.0,12.0,88,0.00,,,0.00,0,weatherlink.com 1.10,2013-02-23 05:26:00,
2013-02-23 00:41:00,71.7,68.0,30.00,South,176,5.0,10.0,87,0.00,,,0.00,0,weatherlink.com 1.10,2013-02-23 05:41:00,
2013-02-23 00:56:00,71.9,68.0,29.99,South,176,0.0,7.0,86,0.00,,,0.00,0,weatherlink.com 1.10,2013-02-23 05:56:00,
2013-02-23 01:11:00,71.9,68.0,29.99,South,190,5.0,9.0,86,0.00,,,0.00,0,weatherlink.com 1.10,2013-02-23 06:11:00,
2013-02-23 01:26:00,71.9,68.0,29.99,South,188,5.0,8.0,86,0.00,,,0.00,0,weatherlink.com 1.10,2013-02-23 06:26:00,
2013-02-23 01:41:00,71.8,68.0,29.99,SSE,155,3.0,6.0,87,0.00,,,0.00,0,weatherlink.com 1.10,2013-02-23 06:41:00,
2013-02-23 01:56:00,71.6,68.0,29.99,SSW,194,2.0,7.0,88,0.00,,,0.00,0,weatherlink.com 1.10,2013-02-23 06:56:00,
2013-02-23 02:11:00,71.4,68.0,29.98,SSE,153,1.0,5.0,89,0.00,,,0.00,0,weatherlink.com 1.10,2013-02-23 07:11:00,
2013-02-23 02:26:00,71.3,68.0,29.97,South,169,0.0,7.0,90,0.00,,,0.00,0,weatherlink.com 1.10,2013-02-23 07:26:00,
2013-02-23 03:14:00,71.5,69.0,29.96,SSE,155,4.0,7.0,90,0.00,,,0.00,0,weatherlink.com 1.10,2013-02-23 08:14:00,
2013-02-23 03:26:00,71.5,69.0,29.96,South,173,5.0,9.0,90,0.00,,,0.00,0,weatherlink.com 1.10,2013-02-23 08:26:00,
2013-02-23 03:41:00,71.5,68.0,29.96,SSE,168,5.0,12.0,89,0.00,,,0.00,0,weatherlink.com 1.10,2013-02-23 08:41:00,
2013-02-23 03:56:00,71.4,68.0,29.96,SSW,194,4.0,8.0,89,0.00,,,0.00,0,weatherlink.com 1.10,2013-02-23 08:56:00,
2013-02-23 04:12:00,71.3,68.0,29.96,SSE,168,2.0,8.0,90,0.00,,,0.00,0,weatherlink.com 1.10,2013-02-23 09:12:00,
2013-02-23 04:26:00,71.1,68.0,29.95,South,175,4.0,8.0,90,0.00,,,0.00,0,weatherlink.com 1.10,2013-02-23 09:26:00,
2013-02-23 04:41:00,70.8,68.0,29.95,South,185,3.0,8.0,90,0.00,,,0.00,0,weatherlink.com 1.10,2013-02-23 09:41:00,
2013-02-23 04:56:00,70.6,68.0,29.95,South,181,1.0,8.0,90,0.00,,,0.00,0,weatherlink.com 1.10,2013-02-23 09:56:00,
2013-02-23 05:12:00,70.5,68.0,29.95,South,179,3.0,9.0,91,0.00,,,0.00,0,weatherlink.com 1.10,2013-02-23 10:12:00,
2013-02-23 05:27:00,70.5,68.0,29.95,South,172,7.0,12.0,91,0.00,,,0.00,0,weatherlink.com 1.10,2013-02-23 10:27:00,
2013-02-23 05:42:00,70.6,68.0,29.94,South,176,7.0,12.0,90,0.00,,,0.00,0,weatherlink.com 1.10,2013-02-23 10:42:00,
2013-02-23 05:57:00,70.4,67.0,29.95,SSE,160,5.0,9.0,90,0.00,,,0.00,0,weatherlink.com 1.10,2013-02-23 10:57:00,
2013-02-23 06:12:00,70.2,67.0,29.95,SSW,195,1.0,10.0,90,0.00,,,0.00,0,weatherlink.com 1.10,2013-02-23 11:12:00,
2013-02-23 06:27:00,70.1,67.0,29.95,SSE,161,2.0,12.0,91,0.00,,,0.00,0,weatherlink.com 1.10,2013-02-23 11:27:00,
2013-02-23 06:42:00,70.1,67.0,29.95,South,172,8.0,10.0,91,0.00,,,0.00,0,weatherlink.com 1.10,2013-02-23 11:42:00,
2013-02-23 06:57:00,70.1,67.0,29.95,South,175,3.0,10.0,91,0.00,,,0.00,0,weatherlink.com 1.10,2013-02-23 11:57:00,
2013-02-23 07:12:00,70.1,67.0,29.96,SSE,155,5.0,16.0,90,0.00,,,0.00,12,weatherlink.com 1.10,2013-02-23 12:12:00,
2013-02-23 07:27:00,70.2,67.0,29.96,South,171,3.0,8.0,90,0.00,,,0.00,19,weatherlink.com 1.10,2013-02-23 12:27:00,
2013-02-23 07:42:00,70.4,67.0,29.97,SSE,167,0.0,12.0,90,0.00,,,0.00,44,weatherlink.com 1.10,2013-02-23 12:42:00,
2013-02-23 07:57:00,70.7,68.0,29.97,SSE,164,4.0,10.0,90,0.00,,,0.00,53,weatherlink.com 1.10,2013-02-23 12:57:00,
2013-02-23 08:12:00,71.2,68.0,29.97,South,174,3.0,10.0,89,0.00,,,0.00,56,weatherlink.com 1.10,2013-02-23 13:12:00,
2013-02-23 08:27:00,71.3,68.0,29.98,South,180,4.0,12.0,88,0.00,,,0.00,109,weatherlink.com 1.10,2013-02-23 13:27:00,
2013-02-23 08:42:00,71.7,68.0,29.99,South,190,4.0,14.0,88,0.00,,,0.00,171,weatherlink.com 1.10,2013-02-23 13:42:00,
2013-02-23 08:57:00,72.3,68.0,29.99,South,178,6.0,8.0,86,0.00,,,0.00,102,weatherlink.com 1.10,2013-02-23 13:57:00,
2013-02-23 09:12:00,72.9,68.0,29.99,SSW,192,2.0,11.0,85,0.00,,,0.00,188,weatherlink.com 1.10,2013-02-23 14:12:00,
2013-02-23 09:27:00,73.1,68.0,29.98,South,179,5.0,12.0,83,0.00,,,0.00,237,weatherlink.com 1.10,2013-02-23 14:27:00,
2013-02-23 09:42:00,73.6,68.0,29.98,SSE,167,0.0,12.0,82,0.00,,,0.00,195,weatherlink.com 1.10,2013-02-23 14:42:00,
2013-02-23 09:57:00,74.4,68.0,29.98,SSW,197,7.0,12.0,81,0.00,,,0.00,230,weatherlink.com 1.10,2013-02-23 14:57:00,
2013-02-23 10:12:00,75.3,68.0,29.97,SSW,205,7.0,14.0,77,0.00,,,0.00,237,weatherlink.com 1.10,2013-02-23 15:12:00,
2013-02-23 10:27:00,77.1,68.0,29.97,SW,223,5.0,14.0,74,0.00,,,0.00,656,weatherlink.com 1.10,2013-02-23 15:27:00,
2013-02-23 10:42:00,78.0,68.0,29.97,SSW,203,11.0,15.0,71,0.00,,,0.00,722,weatherlink.com 1.10,2013-02-23 15:42:00,
2013-02-23 10:57:00,78.7,68.0,29.97,South,190,4.0,14.0,69,0.00,,,0.00,255,weatherlink.com 1.10,2013-02-23 15:57:00,
2013-02-23 11:12:00,79.0,67.0,29.96,South,171,8.0,12.0,67,0.00,,,0.00,343,weatherlink.com 1.10,2013-02-23 16:12:00,
2013-02-23 11:27:00,79.9,68.0,29.96,SW,219,4.0,14.0,66,0.00,,,0.00,359,weatherlink.com 1.10,2013-02-23 16:27:00,
2013-02-23 11:42:00,80.5,67.0,29.95,SSW,206,8.0,13.0,64,0.00,,,0.00,926,weatherlink.com 1.10,2013-02-23 16:42:00,
2013-02-23 11:57:00,81.0,68.0,29.95,SW,228,4.0,14.0,64,0.00,,,0.00,930,weatherlink.com 1.10,2013-02-23 16:57:00,
2013-02-23 12:12:00,82.2,67.0,29.95,SSE,152,8.0,12.0,60,0.00,,,0.00,779,weatherlink.com 1.10,2013-02-23 17:12:00,
2013-02-23 12:27:00,82.1,67.0,29.95,SW,225,5.0,12.0,60,0.00,,,0.00,206,weatherlink.com 1.10,2013-02-23 17:27:00,
2013-02-23 12:43:00,82.7,66.0,29.93,SW,226,9.0,17.0,57,0.00,,,0.00,819,weatherlink.com 1.10,2013-02-23 17:43:00,
2013-02-23 12:58:00,82.6,67.0,29.93,SW,223,7.0,14.0,59,0.00,,,0.00,882,weatherlink.com 1.10,2013-02-23 17:58:00,
2013-02-23 13:13:00,84.1,66.0,29.91,South,180,3.0,9.0,55,0.00,,,0.00,896,weatherlink.com 1.10,2013-02-23 18:13:00,
2013-02-23 13:28:00,84.6,66.0,29.90,SW,236,3.0,11.0,54,0.00,,,0.00,946,weatherlink.com 1.10,2013-02-23 18:28:00,
2013-02-23 13:43:00,84.0,66.0,29.90,SW,216,1.0,11.0,55,0.00,,,0.00,882,weatherlink.com 1.10,2013-02-23 18:43:00,
2013-02-23 13:58:00,86.2,65.0,29.89,South,183,6.0,12.0,50,0.00,,,0.00,621,weatherlink.com 1.10,2013-02-23 18:58:00,
2013-02-23 14:13:00,85.9,65.0,29.88,South,180,7.0,9.0,50,0.00,,,0.00,786,weatherlink.com 1.10,2013-02-23 19:13:00,
2013-02-23 14:28:00,85.2,64.0,29.87,SW,229,3.0,10.0,50,0.00,,,0.00,255,weatherlink.com 1.10,2013-02-23 19:28:00,
2013-02-23 14:43:00,85.2,64.0,29.87,SW,236,3.0,11.0,50,0.00,,,0.00,179,weatherlink.com 1.10,2013-02-23 19:43:00,
2013-02-23 14:58:00,84.8,65.0,29.87,SW,220,2.0,14.0,51,0.00,,,0.00,782,weatherlink.com 1.10,2013-02-23 19:58:00,
2013-02-23 15:13:00,86.6,65.0,29.87,WSW,246,12.0,14.0,49,0.00,,,0.00,628,weatherlink.com 1.10,2013-02-23 20:13:00,
2013-02-23 15:28:00,86.3,64.0,29.86,South,179,3.0,8.0,48,0.00,,,0.00,640,weatherlink.com 1.10,2013-02-23 20:28:00,
2013-02-23 15:43:00,86.9,65.0,29.86,SSW,205,1.0,8.0,48,0.00,,,0.00,162,weatherlink.com 1.10,2013-02-23 20:43:00,
2013-02-23 15:58:00,85.6,65.0,29.86,South,179,2.0,9.0,50,0.00,,,0.00,123,weatherlink.com 1.10,2013-02-23 20:58:00,
2013-02-23 16:13:00,85.5,65.0,29.85,SW,225,3.0,12.0,50,0.00,,,0.00,148,weatherlink.com 1.10,2013-02-23 21:13:00,
2013-02-23 16:28:00,84.9,64.0,29.85,WSW,254,2.0,11.0,50,0.00,,,0.00,153,weatherlink.com 1.10,2013-02-23 21:28:00,
2013-02-23 16:43:00,84.6,63.0,29.85,WSW,247,1.0,10.0,49,0.00,,,0.00,104,weatherlink.com 1.10,2013-02-23 21:43:00,
2013-02-23 16:58:00,85.0,64.0,29.85,WSW,240,0.0,10.0,50,0.00,,,0.00,79,weatherlink.com 1.10,2013-02-23 21:58:00,
2013-02-23 17:13:00,84.0,64.0,29.85,WSW,238,4.0,11.0,51,0.00,,,0.00,130,weatherlink.com 1.10,2013-02-23 22:13:00,
2013-02-23 17:28:00,83.7,64.0,29.86,SSW,198,0.0,10.0,52,0.00,,,0.00,93,weatherlink.com 1.10,2013-02-23 22:28:00,
2013-02-23 17:42:00,83.6,64.0,29.86,WSW,238,1.0,9.0,52,0.00,,,0.00,79,weatherlink.com 1.10,2013-02-23 22:42:00,
2013-02-23 17:57:00,83.1,64.0,29.86,WSW,246,7.0,9.0,53,0.00,,,0.00,26,weatherlink.com 1.10,2013-02-23 22:57:00,
2013-02-23 18:12:00,82.1,64.0,29.87,SW,234,3.0,10.0,54,0.00,,,0.00,16,weatherlink.com 1.10,2013-02-23 23:12:00,
2013-02-23 18:27:00,81.7,64.0,29.87,SW,223,8.0,10.0,55,0.00,,,0.00,0,weatherlink.com 1.10,2013-02-23 23:27:00,
2013-02-23 18:42:00,80.9,64.0,29.87,WSW,256,1.0,8.0,56,0.00,,,0.00,0,weatherlink.com 1.10,2013-02-23 23:42:00,
2013-02-23 18:57:00,80.3,63.0,29.88,SW,229,1.0,6.0,56,0.00,,,0.00,0,weatherlink.com 1.10,2013-02-23 23:57:00,
2013-02-23 19:12:00,79.8,63.0,29.88,WSW,250,0.0,7.0,56,0.00,,,0.00,0,weatherlink.com 1.10,2013-02-24 00:12:00,
2013-02-23 19:27:00,79.3,63.0,29.89,WSW,250,0.0,3.0,58,0.00,,,0.00,0,weatherlink.com 1.10,2013-02-24 00:27:00,
2013-02-23 19:42:00,78.6,63.0,29.89,WSW,248,0.0,4.0,59,0.00,,,0.00,0,weatherlink.com 1.10,2013-02-24 00:42:00,
2013-02-23 19:57:00,77.9,63.0,29.89,SW,225,2.0,5.0,61,0.00,,,0.00,0,weatherlink.com 1.10,2013-02-24 00:57:00,
2013-02-23 20:12:00,77.6,65.0,29.89,WSW,245,1.0,7.0,65,0.00,,,0.00,0,weatherlink.com 1.10,2013-02-24 01:12:00,
2013-02-23 20:27:00,77.2,66.0,29.90,WSW,256,0.0,8.0,68,0.00,,,0.00,0,weatherlink.com 1.10,2013-02-24 01:27:00,
2013-02-23 20:42:00,76.8,67.0,29.90,WSW,254,1.0,7.0,71,0.00,,,0.00,0,weatherlink.com 1.10,2013-02-24 01:42:00,
2013-02-23 20:57:00,76.3,67.0,29.90,WSW,250,4.0,7.0,73,0.00,,,0.00,0,weatherlink.com 1.10,2013-02-24 01:57:00,
2013-02-23 21:12:00,75.8,67.0,29.90,WSW,250,0.0,4.0,75,0.00,,,0.00,0,weatherlink.com 1.10,2013-02-24 02:12:00,
2013-02-23 21:28:00,75.4,68.0,29.91,WSW,252,0.0,5.0,77,0.00,,,0.00,0,weatherlink.com 1.10,2013-02-24 02:28:00,
2013-02-23 21:43:00,74.9,68.0,29.91,SW,235,6.0,9.0,79,0.00,,,0.00,0,weatherlink.com 1.10,2013-02-24 02:43:00,
2013-02-23 21:58:00,74.6,68.0,29.91,WSW,239,4.0,8.0,81,0.00,,,0.00,0,weatherlink.com 1.10,2013-02-24 02:58:00,
2013-02-23 22:13:00,74.2,68.0,29.92,WSW,246,0.0,8.0,82,0.00,,,0.00,0,weatherlink.com 1.10,2013-02-24 03:13:00,
2013-02-23 22:28:00,73.9,69.0,29.92,West,264,3.0,8.0,84,0.00,,,0.00,0,weatherlink.com 1.10,2013-02-24 03:28:00,
2013-02-23 22:43:00,73.5,68.0,29.92,West,278,0.0,6.0,84,0.00,,,0.00,0,weatherlink.com 1.10,2013-02-24 03:43:00,
2013-02-23 22:58:00,73.2,69.0,29.91,SSW,200,0.0,6.0,86,0.00,,,0.00,0,weatherlink.com 1.10,2013-02-24 03:58:00,
2013-02-23 23:13:00,73.0,69.0,29.91,WSW,251,0.0,5.0,86,0.00,,,0.00,0,weatherlink.com 1.10,2013-02-24 04:13:00,
2013-02-23 23:28:00,72.8,69.0,29.91,SW,219,0.0,8.0,87,0.00,,,0.00,0,weatherlink.com 1.10,2013-02-24 04:28:00,
2013-02-23 23:43:00,72.6,69.0,29.91,West,266,0.0,7.0,88,0.00,,,0.00,0,weatherlink.com 1.10,2013-02-24 04:43:00,
2013-02-23 23:58:00,72.3,69.0,29.90,SSW,198,1.0,7.0,88,0.00,,,0.00,0,weatherlink.com 1.10,2013-02-24 04:58:00,